Terminal Aerodrome Forecast
Issued by NWS

Home | Current Version | Previous Version | Text Only | Print | Product List | Glossary On
Versions: 1 2 3 4 5 6 7 8 9 10 11 12 13 14 15 16 17 18
000
FTUS43 KGLD 061120
TAFMCK
TAF
KMCK 061120Z 0612/0712 30008KT P6SM FEW120
     FM062000 32008KT P6SM SCT250
     FM070000 03004KT P6SM BKN200
     FM070300 03007KT P6SM VCSH BKN080
     FM070600 05008KT P6SM -SN OVC035
     FM070800 05009KT P6SM OVC035
     FM070900 05010KT P6SM OVC025
     FM071100 04010KT 3SM -SN OVC020=

USA.gov is the U.S. government's official web portal to all federal, state and local government web resources and services.